^^
Station Historical Data
 
Daily Summary for October 21, 2017 Units:  Metric    English   Both
« Previous Day
Next Day »
Daily Weekly Monthly Yearly Custom
  Current: High: Low: Average:
Temperature: 6.5 °C 7.7 °C 5.4 °C 6.1 °C
Dew Point: 5.8 °C 6.0 °C 4.1 °C 4.8 °C
Humidity: 95% 95% 87% 92%
Wind Speed: 0.0km/h 0.0km/h 0.0km/h 0km/h
Wind Gust: 0.0km/h 0.0km/h - -
WindCalm - - North
Pressure: 1017.8 hPa 1018.8 hPa 1016.8 hPa -
Precipitation: 0.0 mm      
Historical Graphs
 
 
Tabular Data for October 21, 2017
Time Temperature Dew Point Pressure Wind Wind Speed Wind Gust Humidity Rainfall Rate (Hourly) solar Conditions
00:02 7.7 °C 6.0 °C 1018.8 hPa Calm     89% 0.0 mm 0.0 W/m2 CLR
00:07 7.7 °C 6.0 °C 1018.8 hPa Calm     89% 0.0 mm 0.0 W/m2 CLR
00:12 7.6 °C 5.9 °C 1018.8 hPa Calm     89% 0.0 mm 0.0 W/m2 CLR
00:17 7.6 °C 5.7 °C 1018.8 hPa Calm     88% 0.0 mm 0.0 W/m2 CLR
00:22 7.5 °C 5.7 °C 1018.8 hPa Calm     88% 0.0 mm 0.0 W/m2 CLR
00:27 7.5 °C 5.7 °C 1018.8 hPa Calm     88% 0.0 mm 0.0 W/m2 CLR
00:32 7.5 °C 5.7 °C 1018.8 hPa Calm     88% 0.0 mm 0.0 W/m2 CLR
00:37 7.4 °C 5.4 °C 1018.8 hPa Calm     87% 0.0 mm 0.0 W/m2 CLR
00:42 7.4 °C 5.4 °C 1018.8 hPa Calm     87% 0.0 mm 0.0 W/m2 CLR
00:43 7.4 °C 5.4 °C 1018.8 hPa Calm     87% 0.0 mm 0.0 W/m2 CLR
00:48 7.3 °C 5.3 °C 1018.8 hPa Calm     87% 0.0 mm 0.0 W/m2 CLR
00:53 7.0 °C 5.0 °C 1018.8 hPa Calm     87% 0.0 mm 0.0 W/m2 CLR
00:58 7.1 °C 5.2 °C 1018.8 hPa Calm     88% 0.0 mm 0.0 W/m2 CLR
01:03 7.0 °C 5.2 °C 1018.8 hPa Calm     88% 0.0 mm 0.0 W/m2 CLR
01:08 7.0 °C 5.2 °C 1018.8 hPa Calm     88% 0.0 mm 0.0 W/m2 CLR
01:13 6.8 °C 4.9 °C 1018.8 hPa Calm     88% 0.0 mm 0.0 W/m2 CLR
01:18 6.7 °C 5.0 °C 1018.8 hPa Calm     89% 0.0 mm 0.0 W/m2 CLR
01:23 6.8 °C 5.1 °C 1018.8 hPa Calm     89% 0.0 mm 0.0 W/m2 CLR
01:28 6.7 °C 5.0 °C 1018.8 hPa Calm     89% 0.0 mm 0.0 W/m2 CLR
01:33 6.6 °C 4.9 °C 1018.8 hPa Calm     89% 0.0 mm 0.0 W/m2 CLR
01:38 6.5 °C 4.8 °C 1018.8 hPa Calm     89% 0.0 mm 0.0 W/m2 CLR
01:43 6.4 °C 4.9 °C 1018.8 hPa Calm     90% 0.0 mm 0.0 W/m2 CLR
01:48 6.3 °C 4.8 °C 1018.8 hPa Calm     90% 0.0 mm 0.0 W/m2 CLR
01:53 6.3 °C 4.8 °C 1018.8 hPa Calm     90% 0.0 mm 0.0 W/m2 CLR
01:58 6.3 °C 4.8 °C 1018.8 hPa Calm     90% 0.0 mm 0.0 W/m2 CLR
02:03 6.2 °C 4.7 °C 1018.8 hPa Calm     90% 0.0 mm 0.0 W/m2 CLR
02:08 6.3 °C 4.8 °C 1018.8 hPa Calm     90% 0.0 mm 0.0 W/m2 CLR
02:13 6.2 °C 4.7 °C 1017.8 hPa Calm     90% 0.0 mm 0.0 W/m2 CLR
02:18 6.3 °C 4.8 °C 1017.8 hPa Calm     90% 0.0 mm 0.0 W/m2 CLR
02:23 6.2 °C 4.8 °C 1017.8 hPa Calm     91% 0.0 mm 0.0 W/m2 CLR
02:28 6.1 °C 4.7 °C 1018.8 hPa Calm     91% 0.0 mm 0.0 W/m2 CLR
02:33 6.1 °C 4.7 °C 1018.8 hPa Calm     91% 0.0 mm 0.0 W/m2 CLR
02:38 6.1 °C 4.7 °C 1018.8 hPa Calm     91% 0.0 mm 0.0 W/m2 CLR
02:43 6.1 °C 4.9 °C 1018.8 hPa Calm     92% 0.0 mm 0.0 W/m2 CLR
02:48 6.1 °C 4.9 °C 1018.8 hPa Calm     92% 0.0 mm 0.0 W/m2 CLR
02:53 6.0 °C 4.8 °C 1018.8 hPa Calm     92% 0.0 mm 0.0 W/m2 CLR
02:58 5.9 °C 4.7 °C 1017.8 hPa Calm     92% 0.0 mm 0.0 W/m2 CLR
03:03 5.9 °C 4.8 °C 1017.8 hPa Calm     93% 0.0 mm 0.0 W/m2 CLR
03:08 5.9 °C 4.8 °C 1017.8 hPa Calm     93% 0.0 mm 0.0 W/m2 CLR
03:13 5.8 °C 4.6 °C 1017.8 hPa Calm     92% 0.0 mm 0.0 W/m2 CLR
03:18 5.8 °C 4.6 °C 1017.8 hPa Calm     92% 0.0 mm 0.0 W/m2 CLR
03:23 5.8 °C 4.6 °C 1017.8 hPa Calm     92% 0.0 mm 0.0 W/m2 CLR
03:28 5.7 °C 4.5 °C 1017.8 hPa Calm     92% 0.0 mm 0.0 W/m2 CLR
03:33 5.8 °C 4.6 °C 1017.8 hPa Calm     92% 0.0 mm 0.0 W/m2 CLR
03:38 5.7 °C 4.3 °C 1017.8 hPa Calm     91% 0.0 mm 0.0 W/m2 CLR
03:43 5.7 °C 4.3 °C 1017.8 hPa Calm     91% 0.0 mm 0.0 W/m2 CLR
03:48 5.6 °C 4.2 °C 1017.8 hPa Calm     91% 0.0 mm 0.0 W/m2 CLR
03:53 5.5 °C 4.2 °C 1017.8 hPa Calm     91% 0.0 mm 0.0 W/m2 CLR
03:58 5.4 °C 4.1 °C 1017.8 hPa Calm     91% 0.0 mm 0.0 W/m2 CLR
04:03 5.5 °C 4.3 °C 1017.8 hPa Calm     92% 0.0 mm 0.0 W/m2 CLR
04:08 5.4 °C 4.2 °C 1017.8 hPa Calm     92% 0.0 mm 0.0 W/m2 CLR
04:13 5.5 °C 4.3 °C 1017.8 hPa Calm     92% 0.0 mm 0.0 W/m2 CLR
04:18 5.6 °C 4.4 °C 1017.8 hPa Calm     92% 0.0 mm 0.0 W/m2 CLR
04:23 5.5 °C 4.3 °C 1017.8 hPa Calm     92% 0.0 mm 0.0 W/m2 CLR
04:28 5.6 °C 4.6 °C 1017.8 hPa Calm     93% 0.0 mm 0.0 W/m2 CLR
04:33 5.6 °C 4.6 °C 1017.8 hPa Calm     93% 0.0 mm 0.0 W/m2 CLR
04:38 5.6 °C 4.6 °C 1017.8 hPa Calm     93% 0.0 mm 0.0 W/m2 CLR
04:43 5.5 °C 4.4 °C 1017.8 hPa Calm     93% 0.0 mm 0.0 W/m2 CLR
04:48 5.4 °C 4.3 °C 1017.8 hPa Calm     93% 0.0 mm 0.0 W/m2 CLR
04:53 5.4 °C 4.3 °C 1017.8 hPa Calm     93% 0.0 mm 0.0 W/m2 CLR
04:58 5.4 °C 4.3 °C 1018.8 hPa Calm     93% 0.0 mm 0.0 W/m2 CLR
05:03 5.5 °C 4.4 °C 1018.8 hPa Calm     93% 0.0 mm 0.0 W/m2 CLR
05:08 5.5 °C 4.4 °C 1018.8 hPa Calm     93% 0.0 mm 0.0 W/m2 CLR
05:13 5.5 °C 4.4 °C 1017.8 hPa Calm     93% 0.0 mm 0.0 W/m2 CLR
05:19 5.6 °C 4.6 °C 1017.8 hPa Calm     93% 0.0 mm 0.0 W/m2 CLR
05:21 5.6 °C 4.6 °C 1017.8 hPa Calm     93% 0.0 mm 0.0 W/m2 CLR
05:22 5.6 °C 4.6 °C 1017.8 hPa Calm     93% 0.0 mm 0.0 W/m2 CLR
05:25 5.6 °C 4.6 °C 1017.8 hPa Calm     93% 0.0 mm 0.0 W/m2 CLR
05:28 5.5 °C 4.4 °C 1018.8 hPa Calm     93% 0.0 mm 0.0 W/m2 CLR
05:30 5.4 °C 4.3 °C 1018.8 hPa Calm     93% 0.0 mm 0.0 W/m2 CLR
05:35 5.4 °C 4.3 °C 1018.8 hPa Calm     93% 0.0 mm 0.0 W/m2 CLR
05:40 5.4 °C 4.3 °C 1018.8 hPa Calm     93% 0.0 mm 0.0 W/m2 CLR
05:45 5.4 °C 4.5 °C 1017.8 hPa Calm     94% 0.0 mm 0.0 W/m2 CLR
05:50 5.4 °C 4.5 °C 1017.8 hPa Calm     94% 0.0 mm 0.0 W/m2 CLR
05:55 5.5 °C 4.6 °C 1017.8 hPa Calm     94% 0.0 mm 0.0 W/m2 CLR
06:00 5.5 °C 4.6 °C 1018.8 hPa Calm     94% 0.0 mm 0.0 W/m2 CLR
06:05 5.5 °C 4.6 °C 1018.8 hPa Calm     94% 0.0 mm 0.0 W/m2 CLR
06:10 5.4 °C 4.5 °C 1018.8 hPa Calm     94% 0.0 mm 0.0 W/m2 CLR
06:15 5.5 °C 4.6 °C 1017.8 hPa Calm     94% 0.0 mm 0.0 W/m2 CLR
06:20 5.5 °C 4.6 °C 1017.8 hPa Calm     94% 0.0 mm 0.0 W/m2 CLR
06:25 5.4 °C 4.5 °C 1017.8 hPa Calm     94% 0.0 mm 0.0 W/m2 CLR
06:30 5.5 °C 4.6 °C 1017.8 hPa Calm     94% 0.0 mm 0.0 W/m2 CLR
06:35 5.6 °C 4.7 °C 1017.8 hPa Calm     94% 0.0 mm 0.0 W/m2 CLR
06:40 5.6 °C 4.7 °C 1017.8 hPa Calm     94% 0.0 mm 0.0 W/m2 CLR
06:45 5.7 °C 4.8 °C 1017.8 hPa Calm     94% 0.0 mm 0.0 W/m2 CLR
06:50 5.7 °C 4.8 °C 1017.8 hPa Calm     94% 0.0 mm 0.0 W/m2 CLR
06:55 5.6 °C 4.7 °C 1017.8 hPa Calm     94% 0.0 mm 0.0 W/m2 CLR
07:00 5.6 °C 4.7 °C 1017.8 hPa Calm     94% 0.0 mm 116.6 W/m2 CLR
07:05 5.7 °C 4.8 °C 1017.8 hPa Calm     94% 0.0 mm 121.7 W/m2 CLR
07:10 5.7 °C 4.8 °C 1017.8 hPa Calm     94% 0.0 mm 124.7 W/m2 CLR
07:15 5.8 °C 4.9 °C 1017.8 hPa Calm     94% 0.0 mm 129.6 W/m2 CLR
07:20 5.8 °C 4.9 °C 1017.8 hPa Calm     94% 0.0 mm 132.7 W/m2 CLR
07:25 5.9 °C 5.0 °C 1017.8 hPa Calm     94% 0.0 mm 137.8 W/m2 CLR
07:30 5.9 °C 5.0 °C 1017.8 hPa Calm     94% 0.0 mm 140.2 W/m2 CLR
07:35 5.9 °C 5.2 °C 1017.8 hPa Calm     95% 0.0 mm 143.0 W/m2 CLR
07:40 6.0 °C 5.1 °C 1017.8 hPa Calm     94% 0.0 mm 147.9 W/m2 CLR
07:45 6.0 °C 5.1 °C 1016.8 hPa Calm     94% 0.0 mm 150.4 W/m2 CLR
07:50 6.0 °C 5.1 °C 1016.8 hPa Calm     94% 0.0 mm 152.5 W/m2 CLR
07:55 6.0 °C 5.1 °C 1016.8 hPa Calm     94% 0.0 mm 154.6 W/m2 CLR
08:01 6.1 °C 5.3 °C 1017.8 hPa Calm     95% 0.0 mm 159.3 W/m2 CLR
08:06 6.1 °C 5.3 °C 1017.8 hPa Calm     95% 0.0 mm 161.5 W/m2 CLR
08:11 6.2 °C 5.4 °C 1017.8 hPa Calm     95% 0.0 mm 165.9 W/m2 CLR
08:16 6.3 °C 5.6 °C 1017.8 hPa Calm     95% 0.0 mm 170.5 W/m2 CLR
08:21 6.4 °C 5.7 °C 1017.8 hPa Calm     95% 0.0 mm 175.1 W/m2 CLR
08:26 6.5 °C 5.8 °C 1017.8 hPa Calm     95% 0.0 mm 179.3 W/m2 CLR
Hered Hungary
Compliments of Weather Underground - 3 mb